Terminal Aerodrome Forecast
Issued by NWS Central Illinois

Home | Current Version | Previous Version | Text Only | Print | Product List | Glossary On
Versions: 1 2 3 4 5 6 7 8 9 10 11 12 13 14 15 16 17 18 19 20 21 22
000
FTUS43 KILX 232332
TAFPIA
TAF
KPIA 232332Z 2400/2424 30012G18KT P6SM VCSH BKN060
     FM240300 30010G17KT P6SM BKN090
     FM240600 30012G17KT P6SM -SHRA OVC030
     FM241400 30012G20KT 5SM -SHRA BR OVC025
     FM241800 29015G25KT P6SM VCSH OVC030=

USA.gov is the U.S. government's official web portal to all federal, state and local government web resources and services.